createdAt,value
2023-01-30T00:00:55.915Z,-5.70
2023-01-30T00:05:01.369Z,-5.80
2023-01-30T00:09:06.928Z,-5.80
2023-01-30T00:13:11.280Z,-5.70
2023-01-30T00:17:40.527Z,-5.70
2023-01-30T00:21:44.529Z,-5.70
2023-01-30T00:25:51.234Z,-5.70
2023-01-30T00:30:02.830Z,-5.70
2023-01-30T00:34:10.580Z,-5.80
2023-01-30T00:38:15.273Z,-5.70
2023-01-30T00:42:38.048Z,-5.70
2023-01-30T00:46:59.462Z,-5.70
2023-01-30T00:51:03.640Z,-5.60
2023-01-30T00:55:32.958Z,-5.70
2023-01-30T00:59:38.068Z,-5.70
2023-01-30T01:03:54.011Z,-5.60
2023-01-30T01:07:57.839Z,-5.70
2023-01-30T01:12:01.826Z,-5.70
2023-01-30T01:16:12.191Z,-5.60
2023-01-30T01:20:16.664Z,-5.70
2023-01-30T01:24:25.823Z,-5.60
2023-01-30T01:28:29.430Z,-5.60
2023-01-30T01:32:35.151Z,-5.70
2023-01-30T01:36:54.912Z,-5.70
2023-01-30T01:41:07.749Z,-5.70
2023-01-30T01:45:31.306Z,-5.70
2023-01-30T01:49:38.851Z,-5.70
2023-01-30T01:54:01.244Z,-5.70
2023-01-30T01:58:09.167Z,-5.70
2023-01-30T02:02:15.762Z,-5.70
2023-01-30T02:06:45.257Z,-5.70
2023-01-30T02:10:54.517Z,-5.70
2023-01-30T02:15:00.310Z,-5.70
2023-01-30T02:19:21.449Z,-5.70
2023-01-30T02:24:08.158Z,-5.80
2023-01-30T02:28:59.651Z,-5.80
2023-01-30T02:33:17.415Z,-5.80
2023-01-30T02:37:38.514Z,-5.90
2023-01-30T02:41:50.222Z,-5.90
2023-01-30T02:45:58.386Z,-6.00
2023-01-30T02:50:12.052Z,-6.00
2023-01-30T02:54:16.527Z,-6.10
2023-01-30T02:58:25.923Z,-6.10
2023-01-30T03:02:52.213Z,-6.10
2023-01-30T03:07:15.538Z,-6.10
2023-01-30T03:11:27.612Z,-6.10
2023-01-30T03:15:35.606Z,-6.10
2023-01-30T03:19:39.208Z,-5.90
2023-01-30T03:23:46.279Z,-5.80
2023-01-30T03:27:51.565Z,-5.80
2023-01-30T03:31:55.373Z,-5.70
2023-01-30T03:36:25.796Z,-5.60
2023-01-30T03:40:32.263Z,-5.50
2023-01-30T03:44:40.360Z,-5.50
2023-01-30T03:48:44.273Z,-5.60
2023-01-30T03:52:49.281Z,-5.60
2023-01-30T03:57:08.069Z,-5.60
2023-01-30T04:01:11.437Z,-5.60
2023-01-30T04:05:15.205Z,-5.60
2023-01-30T04:09:24.852Z,-5.60
2023-01-30T04:13:30.816Z,-5.70
2023-01-30T04:17:34.230Z,-5.60
2023-01-30T04:22:22.147Z,-5.60
2023-01-30T04:26:25.591Z,-5.60
2023-01-30T04:30:31.439Z,-5.50
2023-01-30T04:34:54.724Z,-5.60
2023-01-30T04:38:58.994Z,-5.60
2023-01-30T04:43:05.654Z,-5.50
2023-01-30T04:47:31.569Z,-5.50
2023-01-30T04:51:34.938Z,-5.40
2023-01-30T04:55:58.518Z,-5.30
2023-01-30T05:00:02.927Z,-5.30
2023-01-30T05:04:08.978Z,-5.20
2023-01-30T05:08:17.502Z,-5.10
2023-01-30T05:18:40.008Z,-4.90
2023-01-30T05:22:44.805Z,-4.90
2023-01-30T05:27:03.617Z,-4.90
2023-01-30T05:31:08.626Z,-4.80
2023-01-30T05:35:11.959Z,-4.80
2023-01-30T05:39:17.091Z,-4.80
2023-01-30T05:43:20.492Z,-4.80
2023-01-30T05:47:23.824Z,-4.70
2023-01-30T05:51:28.735Z,-4.70
2023-01-30T05:55:33.356Z,-4.70
2023-01-30T06:00:39.281Z,-4.60
2023-01-30T06:04:42.524Z,-4.70
2023-01-30T06:08:48.405Z,-4.60
2023-01-30T06:14:06.131Z,-4.60
2023-01-30T06:18:10.907Z,-4.60
2023-01-30T06:22:40.307Z,-4.70
2023-01-30T06:26:43.638Z,-4.70
2023-01-30T06:30:47.057Z,-4.70
2023-01-30T06:35:22.110Z,-4.70
2023-01-30T06:39:26.809Z,-4.70
2023-01-30T06:43:30.097Z,-4.70
2023-01-30T06:48:27.630Z,-4.70
2023-01-30T06:52:31.062Z,-4.70
2023-01-30T06:56:37.057Z,-4.70
2023-01-30T07:00:42.487Z,-4.70
2023-01-30T07:05:36.923Z,-4.70
2023-01-30T07:10:13.301Z,-4.50
2023-01-30T07:15:28.457Z,-4.40
2023-01-30T07:19:33.195Z,-4.20
2023-01-30T07:24:34.439Z,-4.10
2023-01-30T07:28:37.820Z,-4.00
2023-01-30T07:32:44.399Z,-3.90
2023-01-30T07:36:49.600Z,-3.70
2023-01-30T07:41:20.009Z,-3.50
2023-01-30T07:45:23.323Z,-3.50
2023-01-30T07:49:26.657Z,-3.40
2023-01-30T07:53:52.118Z,-3.40
2023-01-30T07:57:55.957Z,-3.40
2023-01-30T08:02:30.071Z,-3.30
2023-01-30T08:11:02.617Z,-3.00
2023-01-30T08:15:07.160Z,-2.80
2023-01-30T08:19:12.733Z,-2.80
2023-01-30T08:23:16.034Z,-2.70
2023-01-30T08:27:30.238Z,-2.60
2023-01-30T08:31:40.647Z,-2.70
2023-01-30T08:35:57.411Z,-2.70
2023-01-30T08:40:00.796Z,-2.60
2023-01-30T08:44:06.165Z,-2.60
2023-01-30T08:48:09.548Z,-2.60
2023-01-30T08:52:12.831Z,-2.60
2023-01-30T08:56:48.937Z,-2.60
2023-01-30T09:00:54.226Z,-2.30
2023-01-30T09:04:58.875Z,-1.90
2023-01-30T09:09:02.528Z,-1.90
2023-01-30T09:13:10.832Z,-1.80
2023-01-30T09:17:42.519Z,-1.30
2023-01-30T09:21:47.463Z,-1.10
2023-01-30T09:25:55.085Z,-1.30
2023-01-30T09:29:58.971Z,-1.30
2023-01-30T09:34:09.853Z,-1.40
2023-01-30T09:38:13.630Z,-1.30
2023-01-30T09:43:06.274Z,-1.30
2023-01-30T09:47:41.946Z,-1.30
2023-01-30T09:51:57.128Z,-1.20
2023-01-30T09:56:03.500Z,-0.90
2023-01-30T10:00:57.644Z,-0.90
2023-01-30T10:05:03.946Z,-0.70
2023-01-30T10:09:36.609Z,-0.20
2023-01-30T10:14:02.355Z,0.20
2023-01-30T10:18:51.493Z,0.20
2023-01-30T10:23:19.691Z,0.30
2023-01-30T10:27:27.042Z,0.60
2023-01-30T10:31:46.962Z,0.50
2023-01-30T10:36:04.567Z,0.40
2023-01-30T10:40:19.591Z,0.30
2023-01-30T10:44:25.511Z,0.30
2023-01-30T10:48:56.696Z,0.30
2023-01-30T10:53:13.995Z,0.00
2023-01-30T10:57:27.316Z,0.00
2023-01-30T11:01:46.261Z,0.20
2023-01-30T11:05:51.701Z,0.50
2023-01-30T11:10:01.933Z,1.00
2023-01-30T11:14:51.651Z,1.40
2023-01-30T11:23:34.057Z,1.40
2023-01-30T11:27:38.093Z,1.40
2023-01-30T11:31:51.784Z,1.20
2023-01-30T11:35:59.803Z,0.80
2023-01-30T11:40:26.685Z,0.60
2023-01-30T11:44:32.094Z,0.50
2023-01-30T11:49:02.320Z,0.30
2023-01-30T11:53:49.528Z,0.40
2023-01-30T11:57:58.708Z,0.30
2023-01-30T12:02:14.327Z,0.30
2023-01-30T12:06:27.398Z,0.20
2023-01-30T12:10:33.182Z,0.20
2023-01-30T12:14:41.445Z,0.20
2023-01-30T12:19:13.404Z,0.30
2023-01-30T12:23:31.800Z,0.30
2023-01-30T12:32:11.898Z,0.10
2023-01-30T12:36:27.234Z,0.00
2023-01-30T12:40:50.198Z,0.00
2023-01-30T12:45:07.555Z,0.00
2023-01-30T12:49:32.670Z,0.00
2023-01-30T12:54:05.007Z,-0.10
2023-01-30T12:58:22.598Z,-0.10
2023-01-30T13:02:47.481Z,-0.10
2023-01-30T13:07:08.128Z,-0.20
2023-01-30T13:11:40.989Z,-0.20
2023-01-30T13:15:59.652Z,-0.20
2023-01-30T13:20:19.514Z,-0.30
2023-01-30T13:24:29.297Z,-0.20
2023-01-30T13:28:37.415Z,-0.10
2023-01-30T13:32:51.272Z,0.10
2023-01-30T13:37:00.958Z,0.20
2023-01-30T13:41:05.302Z,0.20
2023-01-30T13:45:17.230Z,0.20
2023-01-30T13:49:25.060Z,0.20
2023-01-30T13:53:57.041Z,0.40
2023-01-30T13:58:17.246Z,0.60
2023-01-30T14:02:25.130Z,0.60
2023-01-30T14:06:45.741Z,0.40
2023-01-30T14:10:56.334Z,0.40
2023-01-30T14:15:26.784Z,0.40
2023-01-30T14:19:36.808Z,0.30
2023-01-30T14:23:42.092Z,0.40
2023-01-30T14:28:30.366Z,0.30
2023-01-30T14:38:20.265Z,0.20
2023-01-30T14:42:25.658Z,0.10
2023-01-30T14:46:59.077Z,0.10
2023-01-30T14:51:33.361Z,0.00
2023-01-30T14:55:38.757Z,0.00
2023-01-30T15:00:12.119Z,-0.10
2023-01-30T15:04:17.633Z,-0.10
2023-01-30T15:08:49.805Z,-0.10
2023-01-30T15:13:06.043Z,-0.10
2023-01-30T15:17:24.970Z,-0.20
2023-01-30T15:21:45.372Z,-0.20
2023-01-30T15:26:14.242Z,-0.20
2023-01-30T15:31:07.469Z,-0.20
2023-01-30T15:35:49.387Z,-0.20
2023-01-30T15:39:52.724Z,-0.30
2023-01-30T15:44:19.958Z,-0.30
2023-01-30T15:48:50.736Z,-0.30
2023-01-30T15:52:56.631Z,-0.30
2023-01-30T15:57:01.626Z,-0.30
2023-01-30T16:01:09.699Z,-0.30
2023-01-30T16:05:19.849Z,-0.30
2023-01-30T16:09:27.743Z,-0.30
2023-01-30T16:13:33.395Z,-0.30
2023-01-30T16:17:37.037Z,-0.30
2023-01-30T16:21:42.121Z,-0.30
2023-01-30T16:25:48.644Z,-0.30
2023-01-30T16:29:54.708Z,-0.40
2023-01-30T16:33:58.786Z,-0.40
2023-01-30T16:39:07.121Z,-0.40
2023-01-30T16:43:44.480Z,-0.40
2023-01-30T16:47:48.982Z,-0.40
2023-01-30T16:52:02.180Z,-0.40
2023-01-30T16:56:09.999Z,-0.40
2023-01-30T17:00:42.827Z,-0.40
2023-01-30T17:04:46.106Z,-0.40
2023-01-30T17:08:58.845Z,-0.40
2023-01-30T17:13:37.877Z,-0.50
2023-01-30T17:17:43.452Z,-0.50
2023-01-30T17:21:53.116Z,-0.50
2023-01-30T17:26:01.931Z,-0.50
2023-01-30T17:30:33.809Z,-0.50
2023-01-30T17:34:41.185Z,-0.50
2023-01-30T17:38:50.425Z,-0.50
2023-01-30T17:42:55.033Z,-0.50
2023-01-30T17:47:03.185Z,-0.50
2023-01-30T17:51:08.714Z,-0.50
2023-01-30T17:55:14.699Z,-0.50
2023-01-30T17:59:31.701Z,-0.60
2023-01-30T18:03:34.959Z,-0.60
2023-01-30T18:07:40.416Z,-0.60
2023-01-30T18:11:45.381Z,-0.60
2023-01-30T18:15:48.723Z,-0.50
2023-01-30T18:19:54.388Z,-0.50
2023-01-30T18:24:26.193Z,-0.60
2023-01-30T18:28:30.800Z,-0.50
2023-01-30T18:32:53.430Z,-0.50
2023-01-30T18:36:57.268Z,-0.50
2023-01-30T18:41:00.829Z,-0.50
2023-01-30T18:45:06.211Z,-0.50
2023-01-30T18:49:28.099Z,-0.50
2023-01-30T18:53:31.441Z,-0.40
2023-01-30T18:57:45.825Z,-0.40
2023-01-30T19:01:50.663Z,-0.40
2023-01-30T19:05:54.066Z,-0.30
2023-01-30T19:09:57.601Z,-0.30
2023-01-30T19:14:01.593Z,-0.20
2023-01-30T19:18:08.598Z,-0.20
2023-01-30T19:22:11.907Z,-0.20
2023-01-30T19:27:18.502Z,-0.20
2023-01-30T19:31:23.343Z,-0.20
2023-01-30T19:35:53.303Z,-0.20
2023-01-30T19:39:56.561Z,-0.20
2023-01-30T19:44:05.948Z,-0.20
2023-01-30T19:48:10.594Z,-0.20
2023-01-30T19:53:21.801Z,-0.20
2023-01-30T19:57:26.719Z,-0.10
2023-01-30T20:01:42.949Z,-0.10
2023-01-30T20:05:49.048Z,-0.10
2023-01-30T20:09:53.832Z,-0.10
2023-01-30T20:14:07.554Z,-0.10
2023-01-30T20:18:12.205Z,-0.10
2023-01-30T20:22:18.436Z,0.00
2023-01-30T20:26:24.965Z,-0.10
2023-01-30T20:30:31.562Z,-0.10
2023-01-30T20:34:38.434Z,0.00
2023-01-30T20:38:51.626Z,-0.10
2023-01-30T20:43:02.595Z,-0.10
2023-01-30T20:47:16.980Z,-0.10
2023-01-30T20:51:29.039Z,-0.10
2023-01-30T20:55:32.456Z,-0.10
2023-01-30T20:59:40.977Z,-0.10
2023-01-30T21:03:48.200Z,-0.10
2023-01-30T21:07:56.962Z,0.00
2023-01-30T21:12:04.398Z,0.00
2023-01-30T21:16:14.197Z,0.00
2023-01-30T21:20:19.234Z,0.10
2023-01-30T21:24:26.496Z,0.10
2023-01-30T21:28:32.109Z,0.00
2023-01-30T21:32:36.674Z,0.00
2023-01-30T21:37:07.795Z,0.00
2023-01-30T21:41:36.838Z,0.00
2023-01-30T21:45:40.179Z,0.00
2023-01-30T21:49:45.658Z,0.00
2023-01-30T21:53:50.649Z,0.10
2023-01-30T21:57:53.917Z,0.00
2023-01-30T22:02:13.821Z,0.10
2023-01-30T22:06:16.999Z,0.10
2023-01-30T22:10:21.943Z,0.10
2023-01-30T22:14:31.062Z,0.10
2023-01-30T22:18:35.368Z,0.10
2023-01-30T22:23:03.512Z,0.10
2023-01-30T22:27:08.205Z,0.10
2023-01-30T22:31:16.058Z,0.20
2023-01-30T22:35:20.385Z,0.20
2023-01-30T22:39:23.879Z,0.20
2023-01-30T22:43:30.231Z,0.10
2023-01-30T22:47:33.604Z,0.10
2023-01-30T22:51:43.706Z,0.10
2023-01-30T22:55:47.181Z,0.10
2023-01-30T22:59:52.545Z,0.10
2023-01-30T23:03:57.919Z,0.00
2023-01-30T23:08:01.435Z,0.00
2023-01-30T23:13:15.359Z,0.00
2023-01-30T23:17:39.220Z,0.00
2023-01-30T23:22:10.575Z,-0.10
2023-01-30T23:26:14.405Z,-0.10
2023-01-30T23:31:30.002Z,-0.10
2023-01-30T23:35:35.472Z,-0.20
2023-01-30T23:39:38.960Z,-0.20
2023-01-30T23:43:44.165Z,-0.10
2023-01-30T23:47:52.970Z,-0.10
2023-01-30T23:51:57.753Z,-0.10
2023-01-30T23:56:02.924Z,0.00
